Time;durP1;ratioP1;P1;durP2;ratioP2;P2;SDS_P1;SDS_P2;PMS_P1;PMS_P2;Temp;Humidity;BMP_temperature;BMP_pressure;BME280_temperature;BME280_humidity;BME280_pressure;Samples;Min_cycle;Max_cycle;Signal;HPM_P1;HPM_P2
2022/06/07 00:00:35;;;;;;;9.27;5.10;;;23.20;64.20;;;;;;5081630;28;20025;-62
2022/06/07 00:03:01;;;;;;;7.53;4.78;;;23.30;64.30;;;;;;5078243;28;20047;-62
2022/06/07 00:05:28;;;;;;;7.85;5.25;;;23.30;64.20;;;;;;5074124;28;20139;-60
2022/06/07 00:07:54;;;;;;;7.32;4.85;;;23.20;64.20;;;;;;5077893;28;20029;-62
2022/06/07 00:10:21;;;;;;;9.63;4.93;;;23.20;64.30;;;;;;5071148;28;20115;-64
2022/06/07 00:12:47;;;;;;;14.25;4.75;;;23.20;64.40;;;;;;5084945;28;20632;-63
2022/06/07 00:15:13;;;;;;;9.30;4.75;;;23.20;64.30;;;;;;5087119;28;20052;-62
2022/06/07 00:17:38;;;;;;;10.00;5.32;;;23.20;64.30;;;;;;5084166;28;20092;-62
2022/06/07 00:20:05;;;;;;;6.50;4.80;;;23.20;64.40;;;;;;5087927;28;20056;-62
2022/06/07 00:22:32;;;;;;;8.18;4.60;;;23.00;64.50;;;;;;5086133;28;20024;-61
2022/06/07 00:24:57;;;;;;;6.05;4.30;;;23.10;64.60;;;;;;5077636;28;20358;-62
2022/06/07 00:27:24;;;;;;;9.43;4.63;;;23.00;64.70;;;;;;5076773;28;20020;-61
2022/06/07 00:29:50;;;;;;;7.35;4.68;;;23.00;64.80;;;;;;5090753;28;20020;-61
2022/06/07 00:32:19;;;;;;;7.53;4.38;;;23.10;64.60;;;;;;5086403;28;20032;-62
2022/06/07 00:34:45;;;;;;;7.90;4.05;;;23.00;64.70;;;;;;5080220;28;20032;-63
2022/06/07 00:37:11;;;;;;;7.68;4.13;;;23.00;64.60;;;;;;5075615;28;20037;-63
2022/06/07 00:39:36;;;;;;;7.65;4.10;;;23.00;64.60;;;;;;5079788;28;20481;-62
2022/06/07 00:42:02;;;;;;;6.95;4.15;;;23.00;64.60;;;;;;5089829;28;20020;-62
2022/06/07 00:44:36;;;;;;;7.50;3.83;;;23.00;64.70;;;;;;5063944;28;20056;-61
2022/06/07 00:47:09;;;;;;;6.80;4.15;;;22.90;64.90;;;;;;5055089;28;20040;-63
2022/06/07 00:49:43;;;;;;;7.07;4.20;;;22.90;64.80;;;;;;5074071;28;20047;-62
2022/06/07 00:52:09;;;;;;;8.32;4.50;;;23.00;64.90;;;;;;5072449;28;20016;-63
2022/06/07 00:54:35;;;;;;;7.88;4.13;;;23.00;64.70;;;;;;5072215;28;20025;-62
2022/06/07 00:57:02;;;;;;;5.47;4.13;;;22.90;64.70;;;;;;5064191;28;20449;-63
2022/06/07 00:59:28;;;;;;;5.18;4.28;;;22.90;64.90;;;;;;5067745;28;20044;-63
2022/06/07 01:01:54;;;;;;;6.75;4.38;;;23.00;64.90;;;;;;5072833;28;20030;-64
2022/06/07 01:04:22;;;;;;;11.20;4.30;;;22.90;64.90;;;;;;5045464;28;20025;-62
2022/06/07 01:12:16;;;;;;;;;;;22.80;65.30;;;;;;5069590;28;20031;-64
2022/06/07 01:14:42;;;;;;;9.55;4.60;;;22.70;65.30;;;;;;5070480;28;19995;-62
2022/06/07 01:17:07;;;;;;;9.05;4.45;;;22.70;65.40;;;;;;5072405;28;20035;-61
2022/06/07 01:19:33;;;;;;;6.55;4.57;;;22.70;65.60;;;;;;5061228;28;20029;-64
2022/06/07 01:21:59;;;;;;;7.22;4.68;;;22.60;65.80;;;;;;5073964;28;20416;-62
2022/06/07 01:24:24;;;;;;;7.60;4.25;;;22.60;66.60;;;;;;5061130;28;20032;-62
2022/06/07 01:26:50;;;;;;;14.05;4.22;;;22.50;66.10;;;;;;5055949;28;20469;-61
2022/06/07 01:29:17;;;;;;;13.38;4.75;;;22.50;66.20;;;;;;5069717;28;20051;-64
2022/06/07 01:31:43;;;;;;;8.27;4.28;;;22.50;66.40;;;;;;5071372;28;20032;-62
2022/06/07 01:34:12;;;;;;;6.05;4.38;;;22.40;66.50;;;;;;5043480;28;20457;-62
2022/06/07 01:36:37;;;;;;;7.70;4.38;;;22.40;66.60;;;;;;5064461;28;20033;-61
2022/06/07 01:41:54;;;;;;;8.35;4.15;;;22.40;66.90;;;;;;5058164;28;20028;-64
2022/06/07 01:44:28;;;;;;;10.18;4.30;;;22.30;66.80;;;;;;5060688;28;20060;-62
2022/06/07 01:46:55;;;;;;;5.97;4.00;;;22.30;66.70;;;;;;5066909;28;20033;-62
2022/06/07 01:49:23;;;;;;;5.15;4.53;;;22.30;66.80;;;;;;5060401;28;20113;-63
2022/06/07 01:51:50;;;;;;;6.22;4.50;;;22.30;66.90;;;;;;5065969;28;20060;-63
2022/06/07 01:54:16;;;;;;;4.97;3.92;;;22.20;67.00;;;;;;5064407;28;20029;-63
2022/06/07 01:56:42;;;;;;;7.57;4.03;;;22.20;67.10;;;;;;5062408;28;20103;-62
2022/06/07 01:59:09;;;;;;;8.35;4.20;;;22.20;67.30;;;;;;5065457;28;20108;-63
2022/06/07 02:01:36;;;;;;;6.25;3.80;;;22.10;67.40;;;;;;5063536;28;20090;-62
2022/06/07 02:04:02;;;;;;;5.00;4.20;;;22.10;67.30;;;;;;5059406;28;20037;-63
2022/06/07 02:06:28;;;;;;;9.15;4.20;;;22.20;67.30;;;;;;5068759;28;20407;-61
2022/06/07 02:08:53;;;;;;;7.30;3.90;;;22.20;67.30;;;;;;5049263;28;20039;-62
2022/06/07 02:11:23;;;;;;;6.22;4.30;;;22.20;67.30;;;;;;5067255;28;20029;-62
2022/06/07 02:13:49;;;;;;;8.00;4.57;;;22.10;67.30;;;;;;5060472;28;20469;-63
2022/06/07 02:16:16;;;;;;;6.32;3.90;;;22.10;67.40;;;;;;5072956;28;20024;-62
2022/06/07 02:18:42;;;;;;;7.35;4.10;;;22.00;67.50;;;;;;5068866;28;20036;-63
2022/06/07 02:21:09;;;;;;;7.28;4.35;;;22.10;67.50;;;;;;5043845;28;20048;-63
2022/06/07 02:23:36;;;;;;;8.48;4.18;;;22.00;67.40;;;;;;5063576;28;20025;-60
2022/06/07 02:26:08;;;;;;;7.60;4.30;;;22.00;67.50;;;;;;5064430;28;20029;-62
2022/06/07 02:28:38;;;;;;;7.57;4.07;;;21.90;67.70;;;;;;5056957;28;20017;-62
2022/06/07 02:31:05;;;;;;;7.43;4.30;;;21.90;67.90;;;;;;5063223;28;20422;-62
2022/06/07 02:33:33;;;;;;;9.25;4.35;;;21.90;67.90;;;;;;5066362;28;20045;-62
2022/06/07 02:35:59;;;;;;;4.63;3.97;;;21.90;67.90;;;;;;5064475;28;20059;-63
2022/06/07 02:38:25;;;;;;;6.75;3.72;;;21.80;68.00;;;;;;5065959;28;20028;-62
2022/06/07 02:40:53;;;;;;;7.45;4.30;;;21.80;68.10;;;;;;5071431;28;20081;-62
2022/06/07 02:43:20;;;;;;;8.93;4.25;;;21.80;68.20;;;;;;5065823;28;20056;-62
2022/06/07 02:45:46;;;;;;;6.18;3.80;;;21.80;68.30;;;;;;5070605;28;20025;-62
2022/06/07 02:48:11;;;;;;;6.60;4.00;;;21.80;68.20;;;;;;5061969;28;20178;-65
2022/06/07 02:50:38;;;;;;;14.50;4.13;;;21.80;68.20;;;;;;5063677;28;20540;-61
2022/06/07 02:53:04;;;;;;;5.93;3.67;;;21.80;68.20;;;;;;5056732;28;20040;-62
2022/06/07 02:55:30;;;;;;;7.82;4.00;;;21.80;68.20;;;;;;5066103;28;20059;-62
2022/06/07 02:57:56;;;;;;;4.88;3.88;;;21.80;68.30;;;;;;5060048;28;20032;-62
2022/06/07 03:00:22;;;;;;;5.90;3.92;;;21.80;68.30;;;;;;5063966;28;20064;-62
2022/06/07 03:02:48;;;;;;;6.95;4.07;;;21.80;68.30;;;;;;5064444;28;20024;-62
2022/06/07 03:05:14;;;;;;;10.25;3.75;;;21.80;68.20;;;;;;5060696;28;20473;-64
2022/06/07 03:07:41;;;;;;;6.80;3.85;;;21.80;68.20;;;;;;5064008;28;20037;-62
2022/06/07 03:10:09;;;;;;;8.90;4.13;;;21.80;68.10;;;;;;5066160;28;20032;-62
2022/06/07 03:12:36;;;;;;;9.82;4.13;;;21.80;68.10;;;;;;5065877;28;20032;-62
2022/06/07 03:15:03;;;;;;;5.75;4.15;;;21.80;68.10;;;;;;5061212;28;20028;-62
2022/06/07 03:17:29;;;;;;;7.80;4.50;;;21.90;67.90;;;;;;5025085;28;20067;-63
2022/06/07 03:19:54;;;;;;;7.82;4.70;;;22.00;67.80;;;;;;5058770;28;20060;-63
2022/06/07 03:22:21;;;;;;;7.55;4.28;;;22.00;67.60;;;;;;5039311;28;20048;-63
2022/06/07 03:24:47;;;;;;;6.80;4.35;;;22.10;67.50;;;;;;5057344;28;20032;-61
2022/06/07 03:27:13;;;;;;;4.75;3.50;;;22.00;67.40;;;;;;5062343;28;20021;-61
2022/06/07 03:29:39;;;;;;;6.75;3.97;;;22.00;67.50;;;;;;5065040;28;20111;-60
2022/06/07 03:32:06;;;;;;;10.73;4.68;;;22.00;67.50;;;;;;5061183;28;20025;-62
2022/06/07 03:34:32;;;;;;;5.55;4.10;;;22.00;67.40;;;;;;5065980;28;20043;-61
2022/06/07 03:36:58;;;;;;;8.45;3.90;;;22.00;68.00;;;;;;5037020;28;20733;-61
2022/06/07 03:39:24;;;;;;;9.00;4.28;;;22.10;67.30;;;;;;5061925;28;20028;-61
2022/06/07 03:41:50;;;;;;;7.40;3.97;;;22.00;67.40;;;;;;5060273;28;20028;-61
2022/06/07 03:44:16;;;;;;;6.97;4.25;;;22.00;67.30;;;;;;5063870;28;20060;-62
2022/06/07 03:46:43;;;;;;;6.07;4.30;;;22.10;67.40;;;;;;5063539;28;20025;-61
2022/06/07 03:49:09;;;;;;;7.68;4.35;;;22.10;67.40;;;;;;5067469;28;20020;-61
2022/06/07 03:51:35;;;;;;;5.03;4.22;;;22.10;67.20;;;;;;5067890;28;20448;-61
2022/06/07 03:54:02;;;;;;;8.38;4.75;;;22.10;67.10;;;;;;5067644;28;20045;-63
2022/06/07 03:56:28;;;;;;;12.90;7.15;;;22.10;67.20;;;;;;5066626;28;20024;-62
2022/06/07 03:58:54;;;;;;;8.57;4.43;;;22.10;67.20;;;;;;5050306;28;20070;-62
2022/06/07 04:01:22;;;;;;;7.68;4.13;;;22.10;67.20;;;;;;5069083;28;20033;-61
2022/06/07 04:03:50;;;;;;;13.35;4.50;;;22.20;67.00;;;;;;5069486;28;20036;-61
2022/06/07 04:06:28;;;;;;;9.18;3.97;;;22.30;66.90;;;;;;5060334;28;20027;-62
2022/06/07 04:08:54;;;;;;;6.15;4.43;;;22.30;66.80;;;;;;5066596;28;20064;-61
2022/06/07 04:11:21;;;;;;;8.57;4.10;;;22.30;66.80;;;;;;5063418;28;20526;-62
2022/06/07 04:13:48;;;;;;;6.82;4.43;;;22.30;66.80;;;;;;5058218;28;20029;-62
2022/06/07 04:16:17;;;;;;;10.20;5.97;;;22.40;66.90;;;;;;5060879;28;20381;-63
2022/06/07 04:18:43;;;;;;;7.97;6.15;;;22.50;67.10;;;;;;5066714;28;20021;-61
2022/06/07 04:21:09;;;;;;;10.02;6.22;;;22.60;67.90;;;;;;5067485;28;20090;-62
2022/06/07 04:23:35;;;;;;;10.68;6.10;;;22.50;67.50;;;;;;5067866;28;20473;-62
2022/06/07 04:26:16;;;;;;;8.50;5.95;;;22.60;67.60;;;;;;5059374;28;20185;-62
2022/06/07 04:28:42;;;;;;;12.57;8.48;;;22.70;67.70;;;;;;5063624;28;20047;-60
2022/06/07 04:31:19;;;;;;;14.50;7.38;;;22.80;67.70;;;;;;5062277;28;20505;-62
2022/06/07 04:33:45;;;;;;;16.95;7.28;;;22.80;67.90;;;;;;5067849;28;20031;-62
2022/06/07 04:36:21;;;;;;;12.55;7.63;;;22.90;68.00;;;;;;5068947;28;20025;-63
2022/06/07 04:38:48;;;;;;;18.35;8.05;;;23.00;68.10;;;;;;5054317;28;20032;-62
2022/06/07 04:41:16;;;;;;;20.88;8.30;;;23.10;67.80;;;;;;5058686;28;20151;-62
2022/06/07 04:43:42;;;;;;;21.60;9.27;;;23.10;67.70;;;;;;5057226;28;20049;-62
2022/06/07 04:46:10;;;;;;;23.15;8.77;;;23.00;68.10;;;;;;5056531;28;20025;-63
2022/06/07 04:48:38;;;;;;;17.67;9.27;;;23.00;68.10;;;;;;5059456;28;20099;-63
2022/06/07 04:51:16;;;;;;;20.02;8.57;;;23.00;68.00;;;;;;5061427;28;20470;-63
2022/06/07 04:53:41;;;;;;;14.85;8.80;;;23.00;68.10;;;;;;5060206;28;20031;-63
2022/06/07 04:56:13;;;;;;;13.95;8.63;;;23.00;68.00;;;;;;5040366;28;20032;-62
2022/06/07 04:58:40;;;;;;;13.05;8.75;;;23.10;67.90;;;;;;5058023;28;20087;-62
2022/06/07 05:01:36;;;;;;;10.90;8.73;;;23.10;67.70;;;;;;5057459;28;20020;-62
2022/06/07 05:04:02;;;;;;;16.60;9.52;;;23.10;67.80;;;;;;5058889;28;20466;-61
2022/06/07 05:06:35;;;;;;;16.45;9.70;;;23.20;67.60;;;;;;5059974;28;20029;-62
2022/06/07 05:09:05;;;;;;;16.23;10.02;;;23.20;67.50;;;;;;5068845;28;20025;-63
2022/06/07 05:11:31;;;;;;;14.25;8.68;;;23.30;67.10;;;;;;5070880;28;20029;-66
2022/06/07 05:13:59;;;;;;;12.95;9.15;;;23.40;66.80;;;;;;5062777;28;20102;-62
2022/06/07 05:16:25;;;;;;;22.17;13.27;;;23.40;66.80;;;;;;5070104;28;20090;-63
2022/06/07 05:18:52;;;;;;;15.68;10.48;;;23.50;66.40;;;;;;5071434;28;20039;-62
2022/06/07 05:21:20;;;;;;;28.17;10.45;;;23.60;66.10;;;;;;5047193;28;20052;-63
2022/06/07 05:23:45;;;;;;;17.95;9.68;;;23.60;65.80;;;;;;5061352;28;20072;-64
2022/06/07 05:26:26;;;;;;;14.70;9.45;;;23.60;65.60;;;;;;5061012;28;20107;-62
2022/06/07 05:28:52;;;;;;;12.90;9.38;;;23.60;66.00;;;;;;5068125;28;20465;-63
2022/06/07 05:31:18;;;;;;;16.17;10.38;;;23.50;66.10;;;;;;5064311;28;20036;-62
2022/06/07 05:33:43;;;;;;;14.68;9.45;;;23.50;66.00;;;;;;5051785;28;20032;-64
2022/06/07 05:36:09;;;;;;;12.63;8.70;;;23.50;66.10;;;;;;5060581;28;20041;-61
2022/06/07 05:38:36;;;;;;;10.85;8.50;;;23.60;66.00;;;;;;5066277;28;20052;-62
2022/06/07 05:41:03;;;;;;;12.18;8.38;;;23.60;65.80;;;;;;5071504;28;20354;-63
2022/06/07 05:43:31;;;;;;;20.63;8.73;;;23.70;65.50;;;;;;5064762;28;20137;-63
2022/06/07 05:45:59;;;;;;;13.75;8.57;;;23.80;65.00;;;;;;5090245;28;20049;-63
2022/06/07 05:48:25;;;;;;;17.75;8.77;;;23.90;64.50;;;;;;5081751;28;20107;-62
2022/06/07 05:50:52;;;;;;;23.60;8.85;;;24.10;64.10;;;;;;5085807;28;20502;-61
2022/06/07 05:53:19;;;;;;;24.55;8.70;;;24.10;63.90;;;;;;5081019;28;20047;-61
2022/06/07 05:55:45;;;;;;;26.17;9.02;;;24.30;63.60;;;;;;5081377;28;20060;-63
2022/06/07 05:58:11;;;;;;;24.35;9.27;;;24.30;63.20;;;;;;5088989;28;20044;-62
2022/06/07 06:00:37;;;;;;;13.35;7.63;;;24.40;62.90;;;;;;5084100;28;20028;-63
2022/06/07 06:03:03;;;;;;;12.05;8.98;;;24.60;62.20;;;;;;5074107;28;20628;-62
2022/06/07 06:05:29;;;;;;;17.02;8.90;;;24.60;62.10;;;;;;5074603;28;20036;-64
2022/06/07 06:10:40;;;;;;;16.10;8.38;;;24.90;61.40;;;;;;5082504;28;20027;-62
2022/06/07 06:13:06;;;;;;;16.08;8.70;;;25.30;60.60;;;;;;5079314;28;20028;-61
2022/06/07 06:15:31;;;;;;;26.83;8.90;;;25.70;59.90;;;;;;5076374;28;20046;-61
2022/06/07 06:17:57;;;;;;;17.65;8.57;;;26.20;58.40;;;;;;5081118;28;20034;-62
2022/06/07 06:20:23;;;;;;;18.05;8.05;;;26.50;57.30;;;;;;5074999;28;20021;-62
2022/06/07 06:22:49;;;;;;;32.00;9.75;;;26.50;56.70;;;;;;5079077;28;20024;-65
2022/06/07 06:25:15;;;;;;;21.30;7.95;;;26.70;56.50;;;;;;5073471;28;20024;-62
2022/06/07 06:27:41;;;;;;;18.95;9.93;;;26.80;56.00;;;;;;5080175;28;20036;-64
2022/06/07 06:30:10;;;;;;;19.02;7.20;;;27.10;55.50;;;;;;5074727;28;20546;-63
2022/06/07 06:32:36;;;;;;;16.20;6.70;;;27.30;54.60;;;;;;5081577;28;20376;-63
2022/06/07 06:35:03;;;;;;;13.55;6.40;;;27.60;53.90;;;;;;5082975;28;20031;-63
2022/06/07 06:37:29;;;;;;;19.35;7.38;;;27.90;53.10;;;;;;5079993;28;20040;-61
2022/06/07 06:39:55;;;;;;;16.77;6.43;;;28.20;52.50;;;;;;5083724;28;20054;-62
2022/06/07 06:42:21;;;;;;;14.52;7.40;;;28.50;51.40;;;;;;5078585;28;20032;-63
2022/06/07 06:44:46;;;;;;;10.48;6.05;;;28.90;50.90;;;;;;5056137;28;20063;-62
2022/06/07 06:47:13;;;;;;;12.57;5.82;;;29.40;50.30;;;;;;5056774;28;20036;-62
2022/06/07 06:49:41;;;;;;;16.25;6.43;;;30.20;49.10;;;;;;5059595;28;20412;-63
2022/06/07 06:52:10;;;;;;;11.43;5.38;;;31.60;46.30;;;;;;5059636;28;20029;-63
2022/06/07 06:54:36;;;;;;;9.25;4.85;;;32.70;43.40;;;;;;5058880;28;20086;-63
2022/06/07 06:57:03;;;;;;;10.88;4.95;;;33.10;42.40;;;;;;5038733;28;20033;-64
2022/06/07 06:59:28;;;;;;;17.42;5.28;;;33.90;41.80;;;;;;5057209;28;20032;-63
2022/06/07 07:01:54;;;;;;;14.88;6.50;;;34.70;39.60;;;;;;5040494;28;20151;-61
2022/06/07 07:04:21;;;;;;;9.75;5.22;;;35.00;39.60;;;;;;5051338;28;20036;-62
2022/06/07 07:06:48;;;;;;;9.90;4.72;;;36.10;37.90;;;;;;5037387;28;20071;-60
2022/06/07 07:09:17;;;;;;;9.27;4.82;;;36.30;36.90;;;;;;5053483;28;20468;-61
2022/06/07 07:11:49;;;;;;;6.78;4.20;;;36.10;36.90;;;;;;5054871;28;20032;-62
2022/06/07 07:14:16;;;;;;;11.85;4.60;;;36.00;36.90;;;;;;5061772;28;20028;-61
2022/06/07 07:16:45;;;;;;;8.82;4.68;;;36.40;36.80;;;;;;5059440;28;20036;-61
2022/06/07 07:19:12;;;;;;;7.68;4.80;;;37.70;35.20;;;;;;5056429;28;20052;-62
2022/06/07 07:21:47;;;;;;;5.45;4.07;;;39.20;33.60;;;;;;5060726;28;20025;-62
2022/06/07 07:24:17;;;;;;;8.07;4.20;;;40.40;32.10;;;;;;5061146;28;20025;-62
2022/06/07 07:26:44;;;;;;;7.95;4.15;;;41.30;30.80;;;;;;5044615;28;20441;-62
2022/06/07 07:29:12;;;;;;;6.93;4.68;;;42.10;30.00;;;;;;5051278;28;20032;-61
2022/06/07 07:31:38;;;;;;;10.50;4.07;;;41.70;29.70;;;;;;5061157;28;20035;-62
2022/06/07 07:34:09;;;;;;;5.28;4.05;;;40.70;30.30;;;;;;5058942;28;20037;-62
2022/06/07 07:36:41;;;;;;;7.22;3.95;;;39.50;31.60;;;;;;5056665;28;20156;-62
2022/06/07 07:39:07;;;;;;;7.93;4.10;;;38.40;32.80;;;;;;5058869;28;20118;-62
2022/06/07 07:41:35;;;;;;;7.07;3.80;;;37.40;33.90;;;;;;5062708;28;20020;-64
2022/06/07 07:44:04;;;;;;;6.60;3.75;;;36.60;35.10;;;;;;5086127;28;20428;-61
2022/06/07 07:46:35;;;;;;;15.15;5.22;;;35.90;36.00;;;;;;5083879;28;20032;-62
2022/06/07 07:49:02;;;;;;;12.23;4.55;;;35.30;37.40;;;;;;5083319;28;20027;-63
2022/06/07 07:51:33;;;;;;;9.15;4.65;;;35.20;37.20;;;;;;5083024;28;20036;-63
2022/06/07 07:54:01;;;;;;;5.80;3.25;;;35.10;37.10;;;;;;5081197;28;20059;-68
2022/06/07 07:56:28;;;;;;;11.15;4.47;;;34.90;36.20;;;;;;5071065;28;20036;-68
2022/06/07 07:58:55;;;;;;;8.25;3.40;;;34.50;36.20;;;;;;5075270;28;20036;-68
2022/06/07 08:01:23;;;;;;;5.93;3.00;;;34.40;36.50;;;;;;5077767;28;20027;-70
2022/06/07 08:03:50;;;;;;;5.55;2.97;;;34.10;36.30;;;;;;5085106;28;20028;-70
2022/06/07 08:06:19;;;;;;;10.77;3.80;;;34.20;36.80;;;;;;5082221;28;20377;-69
2022/06/07 08:08:47;;;;;;;5.22;3.00;;;34.60;36.60;;;;;;5083913;28;20085;-69
2022/06/07 08:11:14;;;;;;;5.43;3.28;;;37.10;33.60;;;;;;5084462;28;20020;-70
2022/06/07 08:13:42;;;;;;;4.50;2.85;;;37.10;32.90;;;;;;5086915;28;20100;-68
2022/06/07 08:16:09;;;;;;;7.55;2.85;;;36.40;33.60;;;;;;5080566;28;20024;-69
2022/06/07 08:18:36;;;;;;;5.53;2.65;;;35.60;34.70;;;;;;5075573;28;20025;-70
2022/06/07 08:21:05;;;;;;;5.53;2.58;;;35.00;35.10;;;;;;5081879;28;20075;-70
2022/06/07 08:23:32;;;;;;;6.88;2.70;;;34.30;35.70;;;;;;5084341;28;20503;-70
2022/06/07 08:26:00;;;;;;;6.97;2.70;;;33.90;36.30;;;;;;5082907;28;20020;-71
2022/06/07 08:28:26;;;;;;;8.13;2.55;;;33.70;36.80;;;;;;5082867;28;20034;-70
2022/06/07 08:30:52;;;;;;;15.75;3.33;;;33.30;37.30;;;;;;5089320;28;20032;-72
2022/06/07 08:39:04;;;;;;;4.32;2.25;;;34.20;36.40;;;;;;5085456;28;20043;-65
2022/06/07 08:41:34;;;;;;;3.97;2.53;;;33.90;36.40;;;;;;5081599;28;20436;-67
2022/06/07 08:44:13;;;;;;;9.82;2.70;;;33.00;37.20;;;;;;5072061;28;20126;-67
2022/06/07 08:46:39;;;;;;;4.28;2.33;;;32.70;38.20;;;;;;5051923;28;20043;-70
2022/06/07 08:49:06;;;;;;;4.43;2.60;;;32.70;38.00;;;;;;5045991;28;20429;-68
2022/06/07 08:52:02;;;;;;;3.35;2.00;;;33.40;37.40;;;;;;5067275;28;20044;-67
2022/06/07 08:54:32;;;;;;;9.10;2.58;;;35.00;35.00;;;;;;5051433;28;20032;-71
2022/06/07 08:57:14;;;;;;;7.38;2.80;;;35.20;33.60;;;;;;5041499;28;20098;-72
2022/06/07 08:59:39;;;;;;;6.07;2.10;;;36.00;33.00;;;;;;5062246;28;20048;-69
2022/06/07 09:02:23;;;;;;;2.72;1.80;;;35.70;33.00;;;;;;5049369;28;20109;-70
2022/06/07 09:04:48;;;;;;;6.82;2.10;;;34.90;33.50;;;;;;5043605;28;20098;-75
2022/06/07 09:07:17;;;;;;;7.30;2.30;;;34.40;33.90;;;;;;5067953;28;20434;-72
2022/06/07 09:12:33;;;;;;;4.13;2.13;;;33.20;35.60;;;;;;5057193;28;20036;-74
2022/06/07 09:15:04;;;;;;;2.70;1.80;;;33.00;36.20;;;;;;5060473;28;20040;-74
2022/06/07 09:17:34;;;;;;;6.95;2.10;;;33.10;36.20;;;;;;5044747;28;20481;-71
2022/06/07 09:20:02;;;;;;;3.33;1.85;;;33.40;35.60;;;;;;5065673;28;20067;-72
2022/06/07 09:22:46;;;;;;;5.55;1.80;;;33.30;35.90;;;;;;5065290;28;20063;-72
2022/06/07 09:25:23;;;;;;;8.43;2.20;;;33.00;36.30;;;;;;5046738;28;20028;-72
2022/06/07 09:27:48;;;;;;;4.97;2.50;;;32.40;37.10;;;;;;5058570;28;20033;-71
2022/06/07 09:30:17;;;;;;;7.03;2.55;;;31.80;38.30;;;;;;5070285;28;20032;-73
2022/06/07 09:32:51;;;;;;;4.50;2.20;;;31.30;39.30;;;;;;5065945;28;20028;-72
2022/06/07 09:35:39;;;;;;;10.85;2.63;;;31.00;39.80;;;;;;5065713;28;20032;-72
2022/06/07 09:38:36;;;;;;;9.60;2.80;;;30.60;40.80;;;;;;5050478;28;20427;-72
2022/06/07 09:41:37;;;;;;;5.22;2.40;;;30.40;41.80;;;;;;5039374;28;20052;-74
2022/06/07 09:44:29;;;;;;;5.57;2.72;;;30.10;42.70;;;;;;5057255;28;20040;-75
2022/06/07 09:47:14;;;;;;;5.97;2.40;;;29.90;43.10;;;;;;5036085;28;20025;-73
2022/06/07 09:49:44;;;;;;;6.35;2.47;;;29.80;43.40;;;;;;5048567;28;20029;-73
2022/06/07 09:52:45;;;;;;;6.20;2.63;;;29.70;43.70;;;;;;5059506;28;20085;-72
2022/06/07 09:55:27;;;;;;;8.50;3.40;;;29.70;43.70;;;;;;5063930;28;20052;-73
2022/06/07 09:57:56;;;;;;;10.35;2.95;;;29.70;44.00;;;;;;5065383;28;20032;-71
2022/06/07 10:00:30;;;;;;;5.50;2.97;;;29.60;44.10;;;;;;5047568;28;20069;-69
2022/06/07 10:03:08;;;;;;;6.70;3.00;;;29.70;44.30;;;;;;5061837;28;20079;-69
2022/06/07 10:06:16;;;;;;;6.45;3.30;;;29.80;44.20;;;;;;5066833;28;20421;-70
2022/06/07 10:08:41;;;;;;;7.00;3.15;;;30.00;44.20;;;;;;5062668;28;20044;-67
2022/06/07 10:11:33;;;;;;;5.78;3.38;;;30.10;43.80;;;;;;5061089;28;20052;-64
2022/06/07 10:14:25;;;;;;;9.00;3.22;;;30.20;44.10;;;;;;5053745;28;20055;-69
2022/06/07 10:17:02;;;;;;;4.75;3.15;;;30.40;44.10;;;;;;5056452;28;20052;-68
2022/06/07 10:19:42;;;;;;;5.43;3.10;;;30.40;44.10;;;;;;5067822;28;20621;-68
2022/06/07 10:22:24;;;;;;;8.00;3.00;;;30.30;44.10;;;;;;5061626;28;20105;-66
2022/06/07 10:25:17;;;;;;;8.25;3.33;;;30.30;44.30;;;;;;5058028;28;20033;-70
2022/06/07 10:27:51;;;;;;;7.70;4.70;;;30.50;44.20;;;;;;5042817;28;20028;-70
2022/06/07 10:30:38;;;;;;;6.20;3.95;;;30.80;44.30;;;;;;5044907;28;20104;-69
2022/06/07 10:33:27;;;;;;;7.47;3.45;;;31.30;43.60;;;;;;5066232;28;20493;-69
2022/06/07 10:36:09;;;;;;;8.32;3.70;;;31.90;42.70;;;;;;5000732;28;20048;-68
2022/06/07 10:38:50;;;;;;;7.88;3.75;;;32.10;42.20;;;;;;5059044;28;20047;-69
2022/06/07 10:41:18;;;;;;;7.20;3.65;;;31.80;42.00;;;;;;5046521;28;20032;-70
2022/06/07 10:44:09;;;;;;;6.13;3.28;;;31.40;42.40;;;;;;5066451;28;20052;-70
2022/06/07 10:46:37;;;;;;;4.63;3.10;;;31.10;42.90;;;;;;5080356;28;20024;-70
2022/06/07 10:49:08;;;;;;;7.00;3.28;;;30.90;43.20;;;;;;5082413;28;20020;-71
2022/06/07 10:54:54;;;;;;;9.70;3.78;;;31.00;43.60;;;;;;5073740;28;20507;-70
2022/06/07 10:57:43;;;;;;;6.35;2.92;;;31.00;43.20;;;;;;5049598;28;20055;-70
2022/06/07 11:00:38;;;;;;;4.45;3.08;;;31.10;43.10;;;;;;5079520;28;20070;-68
2022/06/07 11:03:31;;;;;;;7.75;3.85;;;31.30;42.70;;;;;;5080156;28;20077;-69
2022/06/07 11:09:29;;;;;;;8.70;3.10;;;31.40;42.20;;;;;;5089081;28;20449;-69
2022/06/07 11:12:02;;;;;;;5.43;3.40;;;31.30;41.80;;;;;;5081003;28;20038;-70
2022/06/07 11:14:37;;;;;;;5.18;3.08;;;31.20;42.20;;;;;;5082422;28;20496;-69
2022/06/07 11:17:31;;;;;;;5.72;3.13;;;31.00;42.20;;;;;;5082845;28;20051;-70
2022/06/07 11:20:00;;;;;;;6.45;3.45;;;30.90;42.50;;;;;;5081733;28;20036;-70
2022/06/07 11:22:34;;;;;;;12.88;3.30;;;30.70;42.10;;;;;;5081126;28;20392;-71
2022/06/07 11:25:51;;;;;;;4.75;2.75;;;30.60;42.40;;;;;;5077353;28;20031;-70
2022/06/07 11:28:40;;;;;;;11.38;3.53;;;30.30;42.70;;;;;;5061584;28;20409;-73
2022/06/07 11:31:15;;;;;;;9.98;3.47;;;30.10;43.10;;;;;;5073628;28;20064;-69
2022/06/07 11:33:47;;;;;;;5.82;3.13;;;29.80;43.40;;;;;;5083035;28;20043;-71
2022/06/07 11:36:12;;;;;;;8.35;2.97;;;29.70;43.40;;;;;;5081035;28;20060;-62
2022/06/07 11:38:56;;;;;;;7.80;3.40;;;29.50;43.80;;;;;;5086163;28;20071;-64
2022/06/07 11:41:37;;;;;;;9.13;4.18;;;29.30;44.40;;;;;;5080802;28;20035;-64
2022/06/07 11:44:11;;;;;;;8.82;3.50;;;29.30;44.80;;;;;;5081431;28;20485;-71
2022/06/07 11:46:52;;;;;;;6.57;3.55;;;29.30;45.00;;;;;;5079323;28;20036;-69
2022/06/07 11:49:18;;;;;;;5.57;3.35;;;29.30;45.40;;;;;;5079567;28;20039;-71
2022/06/07 11:52:06;;;;;;;8.73;3.42;;;29.30;45.90;;;;;;5081615;28;20341;-71
2022/06/07 11:54:36;;;;;;;5.95;3.50;;;29.30;46.00;;;;;;5075110;28;20265;-72
2022/06/07 11:57:37;;;;;;;6.07;3.80;;;29.20;46.30;;;;;;5077982;28;20540;-71
2022/06/07 12:00:17;;;;;;;6.88;3.72;;;29.00;46.60;;;;;;5075378;28;20443;-72
2022/06/07 12:03:17;;;;;;;7.35;3.15;;;28.70;47.80;;;;;;5078638;28;20021;-70
2022/06/07 12:06:14;;;;;;;8.07;3.78;;;28.30;48.90;;;;;;5084285;28;20488;-72
2022/06/07 12:09:17;;;;;;;12.27;3.45;;;28.10;49.90;;;;;;5041565;28;20048;-75
2022/06/07 12:11:43;;;;;;;5.05;3.45;;;27.80;50.40;;;;;;5028246;28;20029;-75
2022/06/07 12:14:27;;;;;;;9.02;4.20;;;27.60;50.90;;;;;;5035142;28;20060;-75
2022/06/07 12:16:55;;;;;;;7.88;3.50;;;27.40;51.70;;;;;;5039095;28;20104;-77
2022/06/07 12:19:32;;;;;;;6.93;3.50;;;27.20;52.20;;;;;;5047012;28;20060;-73
2022/06/07 12:22:06;;;;;;;6.50;3.58;;;26.90;52.80;;;;;;5041385;28;20140;-72
2022/06/07 12:24:58;;;;;;;8.25;3.55;;;26.70;53.60;;;;;;5026648;28;20067;-72
2022/06/07 12:27:29;;;;;;;6.18;3.05;;;26.60;54.10;;;;;;5045351;28;20033;-70
2022/06/07 12:30:01;;;;;;;8.65;3.53;;;26.50;54.70;;;;;;5048664;28;20048;-73
2022/06/07 12:32:35;;;;;;;7.00;3.78;;;26.50;55.50;;;;;;5030144;28;20049;-71
2022/06/07 12:35:13;;;;;;;9.57;4.03;;;26.40;57.20;;;;;;5027887;28;20036;-72
2022/06/07 12:37:39;;;;;;;11.80;4.50;;;26.30;57.60;;;;;;5027664;28;20032;-71
2022/06/07 12:40:33;;;;;;;6.57;3.95;;;26.10;58.10;;;;;;5044244;28;20029;-72
2022/06/07 12:43:00;;;;;;;8.73;4.45;;;26.10;58.90;;;;;;5048992;28;20098;-70
2022/06/07 12:45:32;;;;;;;8.25;3.90;;;26.10;59.00;;;;;;5043128;28;20036;-71
2022/06/07 12:48:05;;;;;;;10.90;4.13;;;26.20;59.30;;;;;;5092858;28;20028;-71
2022/06/07 12:50:35;;;;;;;6.43;4.30;;;26.20;59.60;;;;;;5087537;28;20066;-70
2022/06/07 12:53:01;;;;;;;7.80;4.07;;;26.20;59.70;;;;;;5087932;28;20020;-72
2022/06/07 12:55:31;;;;;;;7.57;4.20;;;26.20;59.90;;;;;;5087437;28;20032;-71
2022/06/07 12:58:00;;;;;;;7.90;4.60;;;26.10;59.90;;;;;;5084697;28;20372;-71
2022/06/07 13:00:34;;;;;;;8.38;4.25;;;26.10;60.00;;;;;;5077501;28;20036;-70
2022/06/07 13:03:13;;;;;;;7.15;4.53;;;26.00;60.50;;;;;;5081086;28;20027;-72
2022/06/07 13:05:40;;;;;;;7.20;5.00;;;25.90;60.90;;;;;;5090451;28;20386;-73
2022/06/07 13:08:20;;;;;;;9.27;5.15;;;25.90;61.00;;;;;;5081949;28;20044;-72
2022/06/07 13:10:47;;;;;;;7.78;4.50;;;25.90;61.30;;;;;;5088413;28;20472;-70
2022/06/07 13:13:31;;;;;;;9.05;4.53;;;26.00;61.30;;;;;;5086873;28;20016;-71
2022/06/07 13:16:15;;;;;;;7.63;4.70;;;25.90;61.10;;;;;;5089367;28;20033;-71
2022/06/07 13:19:03;;;;;;;9.45;6.05;;;26.00;61.20;;;;;;5074541;28;20039;-71
2022/06/07 13:21:34;;;;;;;8.40;5.55;;;26.10;61.40;;;;;;5072288;28;20182;-72
2022/06/07 13:24:00;;;;;;;8.10;4.55;;;26.00;60.90;;;;;;5087421;28;20088;-72
2022/06/07 13:26:33;;;;;;;8.05;5.10;;;26.00;61.40;;;;;;5086554;28;20154;-72
2022/06/07 13:29:19;;;;;;;14.77;6.57;;;25.80;61.50;;;;;;5082858;28;20031;-71